Hauptseite
METAR-TAF:

METAR-TAF

Flughäfen :

Neuburg, Deutschland

Fliegerhorst Neuburg

Breite: 48-43N, Länge: 011-13E, Höhe: 380 m

Beobachtung

Neuester Wetterbericht von vor 1 Stunde und 7 Minuten, um 00:20 UTC
Wind 8 kt aus Ost/Nordost
Temperatur -7°C
Luftfeuchtigkeit 62%
Luftdruck 1022 hPa
Sichtweite 10 km oder mehr

METAR: ETSN 250020Z 06008KT 9999 M07/M13 Q1022 BLU+

Zeit: 02:27 (01:27 UTC)

Prognose

Neuester Wetterbericht von vor 2 Stunden und 27 Minuten, um 23:00 UTC
Gültige Prognose vom 25 um 00 UTC bis 25 um 09 UTC
Wind 12 kt aus Nordost
Sichtweite 10 km oder mehr
Leicht bewölkt in der Höhe von 3000 ft
Aufgelockert bewölkt in der Höhe von 18000 ft

TAF: ETSN 242300Z 2500/2509 05012KT 9999 NSW FEW030 SCT180 BY ETGL

Wetterbeobachtungen und Prognosen von mehr als 4000 Flughäfen (METAR und TAF Bericht).

Die verfügbaren Stationen werden durch gelbe und rote Markierungen auf der Karte dargestellt.

Führen Sie die Maus auf sie, um den Namen der Station zu sehen.

Darauf klicken, um die Beobachtung von Wetterbeobachtungen und Prognosen zu sehen.

Um die Karte zu ändern : klicken Sie auf den grünen Tasten mit einem schwarzen Kreuz Zum Vergrößern, auf den grünen Button mit einem Gedankenstrich zu verkleinern, oder auf die grünen Pfeile für benachbarte Karten.


METAR-TAF: